sensor_id;sensor_type;location;lat;lon;timestamp;P1;durP1;ratioP1;P2;durP2;ratioP2
44850;SDS011;30583;48.714;9.386;2022-07-05T00:00:08;3.08;;;1.98;;
44850;SDS011;30583;48.714;9.386;2022-07-05T00:02:36;5.57;;;1.77;;
44850;SDS011;30583;48.714;9.386;2022-07-05T00:05:01;4.40;;;1.85;;
44850;SDS011;30583;48.714;9.386;2022-07-05T00:07:27;5.03;;;1.88;;
44850;SDS011;30583;48.714;9.386;2022-07-05T00:09:54;2.13;;;1.60;;
44850;SDS011;30583;48.714;9.386;2022-07-05T00:12:25;4.40;;;2.03;;
44850;SDS011;30583;48.714;9.386;2022-07-05T00:14:53;3.90;;;1.88;;
44850;SDS011;30583;48.714;9.386;2022-07-05T00:17:19;3.28;;;2.00;;
44850;SDS011;30583;48.714;9.386;2022-07-05T00:19:45;5.72;;;2.00;;
44850;SDS011;30583;48.714;9.386;2022-07-05T00:22:11;3.53;;;2.10;;
44850;SDS011;30583;48.714;9.386;2022-07-05T00:24:36;5.75;;;2.03;;
44850;SDS011;30583;48.714;9.386;2022-07-05T00:27:02;3.17;;;1.83;;
44850;SDS011;30583;48.714;9.386;2022-07-05T00:29:28;3.42;;;2.08;;
44850;SDS011;30583;48.714;9.386;2022-07-05T00:31:54;7.78;;;2.30;;
44850;SDS011;30583;48.714;9.386;2022-07-05T00:34:20;5.15;;;2.00;;
44850;SDS011;30583;48.714;9.386;2022-07-05T00:36:45;6.78;;;2.10;;
44850;SDS011;30583;48.714;9.386;2022-07-05T00:39:11;4.80;;;2.10;;
44850;SDS011;30583;48.714;9.386;2022-07-05T00:41:37;5.65;;;2.55;;
44850;SDS011;30583;48.714;9.386;2022-07-05T00:44:04;3.47;;;2.20;;
44850;SDS011;30583;48.714;9.386;2022-07-05T00:46:31;4.40;;;2.05;;
44850;SDS011;30583;48.714;9.386;2022-07-05T00:48:58;5.00;;;1.98;;
44850;SDS011;30583;48.714;9.386;2022-07-05T00:51:25;4.88;;;2.15;;
44850;SDS011;30583;48.714;9.386;2022-07-05T00:53:51;5.45;;;2.17;;
44850;SDS011;30583;48.714;9.386;2022-07-05T00:56:18;4.30;;;1.88;;
44850;SDS011;30583;48.714;9.386;2022-07-05T00:58:44;3.80;;;2.00;;
44850;SDS011;30583;48.714;9.386;2022-07-05T01:01:10;5.85;;;2.10;;
44850;SDS011;30583;48.714;9.386;2022-07-05T01:03:36;4.53;;;1.90;;
44850;SDS011;30583;48.714;9.386;2022-07-05T01:06:03;4.07;;;2.08;;
44850;SDS011;30583;48.714;9.386;2022-07-05T01:08:31;5.40;;;1.90;;
44850;SDS011;30583;48.714;9.386;2022-07-05T01:11:00;5.43;;;2.10;;
44850;SDS011;30583;48.714;9.386;2022-07-05T01:13:26;2.97;;;2.00;;
44850;SDS011;30583;48.714;9.386;2022-07-05T01:15:52;2.67;;;1.80;;
44850;SDS011;30583;48.714;9.386;2022-07-05T01:18:20;4.82;;;2.25;;
44850;SDS011;30583;48.714;9.386;2022-07-05T01:20:49;6.13;;;2.80;;
44850;SDS011;30583;48.714;9.386;2022-07-05T01:23:15;6.47;;;2.92;;
44850;SDS011;30583;48.714;9.386;2022-07-05T01:25:47;4.18;;;2.50;;
44850;SDS011;30583;48.714;9.386;2022-07-05T01:28:14;4.93;;;2.30;;
44850;SDS011;30583;48.714;9.386;2022-07-05T01:30:40;5.20;;;2.20;;
44850;SDS011;30583;48.714;9.386;2022-07-05T01:33:07;5.20;;;2.28;;
44850;SDS011;30583;48.714;9.386;2022-07-05T01:35:33;3.78;;;2.08;;
44850;SDS011;30583;48.714;9.386;2022-07-05T01:37:59;3.67;;;2.05;;
44850;SDS011;30583;48.714;9.386;2022-07-05T01:40:25;3.78;;;2.20;;
44850;SDS011;30583;48.714;9.386;2022-07-05T01:42:52;5.57;;;2.10;;
44850;SDS011;30583;48.714;9.386;2022-07-05T01:45:18;4.70;;;2.05;;
44850;SDS011;30583;48.714;9.386;2022-07-05T01:48:04;8.45;;;2.15;;
44850;SDS011;30583;48.714;9.386;2022-07-05T01:50:38;6.95;;;2.17;;
44850;SDS011;30583;48.714;9.386;2022-07-05T01:53:18;2.67;;;1.75;;
44850;SDS011;30583;48.714;9.386;2022-07-05T01:55:53;4.47;;;2.20;;
44850;SDS011;30583;48.714;9.386;2022-07-05T01:58:20;3.88;;;2.25;;
44850;SDS011;30583;48.714;9.386;2022-07-05T02:00:47;3.90;;;2.33;;
44850;SDS011;30583;48.714;9.386;2022-07-05T02:03:14;5.10;;;2.45;;
44850;SDS011;30583;48.714;9.386;2022-07-05T02:05:41;5.15;;;2.10;;
44850;SDS011;30583;48.714;9.386;2022-07-05T02:08:08;4.88;;;2.30;;
44850;SDS011;30583;48.714;9.386;2022-07-05T02:10:35;4.90;;;2.20;;
44850;SDS011;30583;48.714;9.386;2022-07-05T02:13:02;4.28;;;2.50;;
44850;SDS011;30583;48.714;9.386;2022-07-05T02:15:31;6.30;;;2.10;;
44850;SDS011;30583;48.714;9.386;2022-07-05T02:17:58;4.47;;;2.10;;
44850;SDS011;30583;48.714;9.386;2022-07-05T02:20:24;4.90;;;2.33;;
44850;SDS011;30583;48.714;9.386;2022-07-05T02:22:50;4.95;;;2.13;;
44850;SDS011;30583;48.714;9.386;2022-07-05T02:25:16;4.80;;;2.20;;
44850;SDS011;30583;48.714;9.386;2022-07-05T02:27:41;4.68;;;1.95;;
44850;SDS011;30583;48.714;9.386;2022-07-05T02:30:07;3.63;;;2.00;;
44850;SDS011;30583;48.714;9.386;2022-07-05T02:32:33;4.68;;;2.30;;
44850;SDS011;30583;48.714;9.386;2022-07-05T02:34:59;2.90;;;2.10;;
44850;SDS011;30583;48.714;9.386;2022-07-05T02:37:24;3.22;;;2.30;;
44850;SDS011;30583;48.714;9.386;2022-07-05T02:39:51;3.20;;;2.30;;
44850;SDS011;30583;48.714;9.386;2022-07-05T02:42:16;3.88;;;2.42;;
44850;SDS011;30583;48.714;9.386;2022-07-05T02:44:42;4.75;;;1.88;;
44850;SDS011;30583;48.714;9.386;2022-07-05T02:47:08;3.95;;;2.30;;
44850;SDS011;30583;48.714;9.386;2022-07-05T02:49:33;3.83;;;2.17;;
44850;SDS011;30583;48.714;9.386;2022-07-05T02:51:59;5.35;;;2.40;;
44850;SDS011;30583;48.714;9.386;2022-07-05T02:54:24;3.33;;;2.28;;
44850;SDS011;30583;48.714;9.386;2022-07-05T02:56:50;2.90;;;2.53;;
44850;SDS011;30583;48.714;9.386;2022-07-05T02:59:15;4.90;;;2.35;;
44850;SDS011;30583;48.714;9.386;2022-07-05T03:01:41;4.15;;;2.30;;
44850;SDS011;30583;48.714;9.386;2022-07-05T03:04:07;2.67;;;2.10;;
44850;SDS011;30583;48.714;9.386;2022-07-05T03:06:34;4.60;;;2.13;;
44850;SDS011;30583;48.714;9.386;2022-07-05T03:09:00;4.90;;;2.15;;
44850;SDS011;30583;48.714;9.386;2022-07-05T03:11:26;5.60;;;2.20;;
44850;SDS011;30583;48.714;9.386;2022-07-05T03:13:51;3.13;;;2.30;;
44850;SDS011;30583;48.714;9.386;2022-07-05T03:16:17;5.32;;;2.05;;
44850;SDS011;30583;48.714;9.386;2022-07-05T03:18:43;4.07;;;2.30;;
44850;SDS011;30583;48.714;9.386;2022-07-05T03:21:08;2.50;;;1.88;;
44850;SDS011;30583;48.714;9.386;2022-07-05T03:23:34;4.10;;;2.38;;
44850;SDS011;30583;48.714;9.386;2022-07-05T03:25:59;5.65;;;2.22;;
44850;SDS011;30583;48.714;9.386;2022-07-05T03:28:25;4.32;;;2.55;;
44850;SDS011;30583;48.714;9.386;2022-07-05T03:30:51;4.68;;;2.28;;
44850;SDS011;30583;48.714;9.386;2022-07-05T03:33:16;3.97;;;2.42;;
44850;SDS011;30583;48.714;9.386;2022-07-05T03:35:42;5.60;;;2.75;;
44850;SDS011;30583;48.714;9.386;2022-07-05T03:38:08;6.97;;;2.40;;
44850;SDS011;30583;48.714;9.386;2022-07-05T03:40:33;4.32;;;2.40;;
44850;SDS011;30583;48.714;9.386;2022-07-05T03:42:59;6.00;;;2.30;;
44850;SDS011;30583;48.714;9.386;2022-07-05T03:45:24;3.63;;;2.55;;
44850;SDS011;30583;48.714;9.386;2022-07-05T03:47:50;5.43;;;2.22;;
44850;SDS011;30583;48.714;9.386;2022-07-05T03:50:16;4.85;;;2.40;;
44850;SDS011;30583;48.714;9.386;2022-07-05T03:52:41;3.88;;;2.40;;
44850;SDS011;30583;48.714;9.386;2022-07-05T03:55:07;7.95;;;2.40;;
44850;SDS011;30583;48.714;9.386;2022-07-05T03:57:33;5.13;;;2.60;;
44850;SDS011;30583;48.714;9.386;2022-07-05T03:59:58;5.47;;;3.08;;
44850;SDS011;30583;48.714;9.386;2022-07-05T04:02:24;4.57;;;2.38;;
44850;SDS011;30583;48.714;9.386;2022-07-05T04:04:50;5.20;;;2.50;;
44850;SDS011;30583;48.714;9.386;2022-07-05T04:07:15;6.38;;;2.30;;
44850;SDS011;30583;48.714;9.386;2022-07-05T04:09:41;7.00;;;2.58;;
44850;SDS011;30583;48.714;9.386;2022-07-05T04:12:06;3.90;;;2.50;;
44850;SDS011;30583;48.714;9.386;2022-07-05T04:14:32;6.18;;;3.00;;
44850;SDS011;30583;48.714;9.386;2022-07-05T04:16:58;6.00;;;2.30;;
44850;SDS011;30583;48.714;9.386;2022-07-05T04:19:23;3.53;;;2.15;;
44850;SDS011;30583;48.714;9.386;2022-07-05T04:21:49;3.90;;;2.63;;
44850;SDS011;30583;48.714;9.386;2022-07-05T04:24:14;4.28;;;2.22;;
44850;SDS011;30583;48.714;9.386;2022-07-05T04:26:40;6.47;;;2.47;;
44850;SDS011;30583;48.714;9.386;2022-07-05T04:29:06;4.40;;;2.55;;
44850;SDS011;30583;48.714;9.386;2022-07-05T04:31:32;4.55;;;2.65;;
44850;SDS011;30583;48.714;9.386;2022-07-05T04:33:57;4.57;;;2.40;;
44850;SDS011;30583;48.714;9.386;2022-07-05T04:36:23;4.53;;;2.60;;
44850;SDS011;30583;48.714;9.386;2022-07-05T04:38:48;6.78;;;2.90;;
44850;SDS011;30583;48.714;9.386;2022-07-05T04:41:14;5.30;;;2.60;;
44850;SDS011;30583;48.714;9.386;2022-07-05T04:43:39;5.22;;;2.90;;
44850;SDS011;30583;48.714;9.386;2022-07-05T04:46:05;5.43;;;2.95;;
44850;SDS011;30583;48.714;9.386;2022-07-05T04:48:30;10.38;;;3.70;;
44850;SDS011;30583;48.714;9.386;2022-07-05T04:50:56;8.77;;;3.25;;
44850;SDS011;30583;48.714;9.386;2022-07-05T04:53:22;8.10;;;3.00;;
44850;SDS011;30583;48.714;9.386;2022-07-05T04:55:48;4.88;;;2.92;;
44850;SDS011;30583;48.714;9.386;2022-07-05T04:58:14;6.03;;;3.05;;
44850;SDS011;30583;48.714;9.386;2022-07-05T05:00:39;6.00;;;2.58;;
44850;SDS011;30583;48.714;9.386;2022-07-05T05:03:05;23.63;;;5.88;;
44850;SDS011;30583;48.714;9.386;2022-07-05T05:05:30;10.82;;;3.58;;
44850;SDS011;30583;48.714;9.386;2022-07-05T05:07:56;12.52;;;3.33;;
44850;SDS011;30583;48.714;9.386;2022-07-05T05:10:21;8.10;;;2.83;;
44850;SDS011;30583;48.714;9.386;2022-07-05T05:12:47;6.80;;;2.70;;
44850;SDS011;30583;48.714;9.386;2022-07-05T05:15:13;10.13;;;2.80;;
44850;SDS011;30583;48.714;9.386;2022-07-05T05:17:39;6.35;;;2.40;;
44850;SDS011;30583;48.714;9.386;2022-07-05T05:20:07;7.75;;;3.05;;
44850;SDS011;30583;48.714;9.386;2022-07-05T05:22:36;4.75;;;2.30;;
44850;SDS011;30583;48.714;9.386;2022-07-05T05:25:02;3.53;;;2.47;;
44850;SDS011;30583;48.714;9.386;2022-07-05T05:27:28;9.88;;;3.35;;
44850;SDS011;30583;48.714;9.386;2022-07-05T05:29:54;6.18;;;2.70;;
44850;SDS011;30583;48.714;9.386;2022-07-05T05:32:19;6.95;;;2.92;;
44850;SDS011;30583;48.714;9.386;2022-07-05T05:34:45;5.28;;;2.40;;
44850;SDS011;30583;48.714;9.386;2022-07-05T05:37:11;3.65;;;2.40;;
44850;SDS011;30583;48.714;9.386;2022-07-05T05:39:36;4.25;;;2.40;;
44850;SDS011;30583;48.714;9.386;2022-07-05T05:42:02;4.47;;;2.63;;
44850;SDS011;30583;48.714;9.386;2022-07-05T05:44:28;6.88;;;2.40;;
44850;SDS011;30583;48.714;9.386;2022-07-05T05:46:53;3.83;;;2.25;;
44850;SDS011;30583;48.714;9.386;2022-07-05T05:49:19;3.97;;;2.53;;
44850;SDS011;30583;48.714;9.386;2022-07-05T05:51:44;16.70;;;4.45;;
44850;SDS011;30583;48.714;9.386;2022-07-05T05:54:10;10.18;;;4.15;;
44850;SDS011;30583;48.714;9.386;2022-07-05T05:56:36;13.50;;;4.78;;
44850;SDS011;30583;48.714;9.386;2022-07-05T05:59:03;14.43;;;5.50;;
44850;SDS011;30583;48.714;9.386;2022-07-05T06:01:28;28.17;;;7.93;;
44850;SDS011;30583;48.714;9.386;2022-07-05T06:03:54;10.65;;;4.45;;
44850;SDS011;30583;48.714;9.386;2022-07-05T06:06:20;5.75;;;4.05;;
44850;SDS011;30583;48.714;9.386;2022-07-05T06:08:45;8.48;;;3.53;;
44850;SDS011;30583;48.714;9.386;2022-07-05T06:11:11;21.05;;;6.93;;
44850;SDS011;30583;48.714;9.386;2022-07-05T06:13:38;36.50;;;9.63;;
44850;SDS011;30583;48.714;9.386;2022-07-05T06:16:05;27.90;;;9.70;;
44850;SDS011;30583;48.714;9.386;2022-07-05T06:18:32;8.50;;;3.92;;
44850;SDS011;30583;48.714;9.386;2022-07-05T06:20:57;8.82;;;3.75;;
44850;SDS011;30583;48.714;9.386;2022-07-05T06:23:23;17.23;;;6.00;;
44850;SDS011;30583;48.714;9.386;2022-07-05T06:25:48;7.70;;;3.58;;
44850;SDS011;30583;48.714;9.386;2022-07-05T06:28:14;22.63;;;7.35;;
44850;SDS011;30583;48.714;9.386;2022-07-05T06:30:40;21.08;;;6.60;;
44850;SDS011;30583;48.714;9.386;2022-07-05T06:33:06;18.65;;;6.95;;
44850;SDS011;30583;48.714;9.386;2022-07-05T06:35:32;13.63;;;5.20;;
44850;SDS011;30583;48.714;9.386;2022-07-05T06:38:02;15.45;;;5.25;;
44850;SDS011;30583;48.714;9.386;2022-07-05T06:40:34;14.35;;;5.30;;
44850;SDS011;30583;48.714;9.386;2022-07-05T06:43:01;10.80;;;4.07;;
44850;SDS011;30583;48.714;9.386;2022-07-05T06:45:29;7.72;;;4.10;;
44850;SDS011;30583;48.714;9.386;2022-07-05T06:47:56;8.82;;;3.90;;
44850;SDS011;30583;48.714;9.386;2022-07-05T06:50:22;6.47;;;4.35;;
44850;SDS011;30583;48.714;9.386;2022-07-05T06:52:48;9.27;;;3.42;;
44850;SDS011;30583;48.714;9.386;2022-07-05T06:55:14;6.55;;;3.25;;
44850;SDS011;30583;48.714;9.386;2022-07-05T06:57:40;9.48;;;2.67;;
44850;SDS011;30583;48.714;9.386;2022-07-05T07:00:06;15.13;;;3.65;;
44850;SDS011;30583;48.714;9.386;2022-07-05T07:02:33;6.72;;;3.40;;
44850;SDS011;30583;48.714;9.386;2022-07-05T07:04:59;4.93;;;3.50;;
44850;SDS011;30583;48.714;9.386;2022-07-05T07:07:24;7.05;;;3.22;;
44850;SDS011;30583;48.714;9.386;2022-07-05T07:12:34;7.68;;;4.10;;
44850;SDS011;30583;48.714;9.386;2022-07-05T07:15:00;9.75;;;7.07;;
44850;SDS011;30583;48.714;9.386;2022-07-05T07:17:25;7.85;;;4.47;;
44850;SDS011;30583;48.714;9.386;2022-07-05T07:19:51;9.20;;;3.63;;
44850;SDS011;30583;48.714;9.386;2022-07-05T07:22:17;4.88;;;2.80;;
44850;SDS011;30583;48.714;9.386;2022-07-05T07:24:42;5.45;;;2.70;;
44850;SDS011;30583;48.714;9.386;2022-07-05T07:27:08;7.68;;;3.95;;
44850;SDS011;30583;48.714;9.386;2022-07-05T07:29:34;8.00;;;3.40;;
44850;SDS011;30583;48.714;9.386;2022-07-05T07:32:02;10.75;;;4.88;;
44850;SDS011;30583;48.714;9.386;2022-07-05T07:34:28;8.30;;;4.03;;
44850;SDS011;30583;48.714;9.386;2022-07-05T07:36:55;10.18;;;5.22;;
44850;SDS011;30583;48.714;9.386;2022-07-05T07:39:20;7.32;;;4.20;;
44850;SDS011;30583;48.714;9.386;2022-07-05T07:41:47;6.95;;;3.40;;
44850;SDS011;30583;48.714;9.386;2022-07-05T07:44:13;8.70;;;2.92;;
44850;SDS011;30583;48.714;9.386;2022-07-05T07:46:39;4.55;;;2.67;;
44850;SDS011;30583;48.714;9.386;2022-07-05T07:49:05;4.80;;;2.67;;
44850;SDS011;30583;48.714;9.386;2022-07-05T07:51:31;6.53;;;2.92;;
44850;SDS011;30583;48.714;9.386;2022-07-05T07:53:57;7.00;;;2.80;;
44850;SDS011;30583;48.714;9.386;2022-07-05T07:56:23;6.95;;;3.13;;
44850;SDS011;30583;48.714;9.386;2022-07-05T07:58:48;9.48;;;5.43;;
44850;SDS011;30583;48.714;9.386;2022-07-05T08:01:14;9.82;;;5.05;;
44850;SDS011;30583;48.714;9.386;2022-07-05T08:03:40;8.43;;;3.40;;
44850;SDS011;30583;48.714;9.386;2022-07-05T08:06:07;5.15;;;2.70;;
44850;SDS011;30583;48.714;9.386;2022-07-05T08:08:40;8.23;;;2.70;;
44850;SDS011;30583;48.714;9.386;2022-07-05T08:11:07;5.45;;;2.78;;
44850;SDS011;30583;48.714;9.386;2022-07-05T08:13:35;5.30;;;2.50;;
44850;SDS011;30583;48.714;9.386;2022-07-05T08:16:01;4.88;;;2.25;;
44850;SDS011;30583;48.714;9.386;2022-07-05T08:18:27;4.68;;;2.10;;
44850;SDS011;30583;48.714;9.386;2022-07-05T08:21:11;4.60;;;2.42;;
44850;SDS011;30583;48.714;9.386;2022-07-05T08:23:56;7.93;;;2.60;;
44850;SDS011;30583;48.714;9.386;2022-07-05T08:26:26;6.38;;;2.38;;
44850;SDS011;30583;48.714;9.386;2022-07-05T08:28:52;4.05;;;2.40;;
44850;SDS011;30583;48.714;9.386;2022-07-05T08:31:18;4.80;;;2.38;;
44850;SDS011;30583;48.714;9.386;2022-07-05T08:33:44;7.40;;;2.30;;
44850;SDS011;30583;48.714;9.386;2022-07-05T08:36:10;5.55;;;2.47;;
44850;SDS011;30583;48.714;9.386;2022-07-05T08:38:35;4.78;;;2.67;;
44850;SDS011;30583;48.714;9.386;2022-07-05T08:41:01;15.15;;;9.75;;
44850;SDS011;30583;48.714;9.386;2022-07-05T08:43:28;6.10;;;2.50;;
44850;SDS011;30583;48.714;9.386;2022-07-05T08:45:54;7.60;;;2.90;;
44850;SDS011;30583;48.714;9.386;2022-07-05T08:48:21;11.32;;;2.78;;
44850;SDS011;30583;48.714;9.386;2022-07-05T08:50:49;4.40;;;2.20;;
44850;SDS011;30583;48.714;9.386;2022-07-05T08:53:19;7.28;;;2.38;;
44850;SDS011;30583;48.714;9.386;2022-07-05T08:55:46;12.20;;;9.02;;
44850;SDS011;30583;48.714;9.386;2022-07-05T08:58:12;9.82;;;6.40;;
44850;SDS011;30583;48.714;9.386;2022-07-05T09:00:38;10.15;;;6.07;;
44850;SDS011;30583;48.714;9.386;2022-07-05T09:03:04;4.75;;;2.28;;
44850;SDS011;30583;48.714;9.386;2022-07-05T09:05:31;5.22;;;2.17;;
44850;SDS011;30583;48.714;9.386;2022-07-05T09:08:09;6.13;;;2.78;;
44850;SDS011;30583;48.714;9.386;2022-07-05T09:10:38;7.75;;;2.75;;
44850;SDS011;30583;48.714;9.386;2022-07-05T09:13:07;8.40;;;2.17;;
44850;SDS011;30583;48.714;9.386;2022-07-05T09:15:32;8.85;;;2.20;;
44850;SDS011;30583;48.714;9.386;2022-07-05T09:17:58;3.67;;;1.80;;
44850;SDS011;30583;48.714;9.386;2022-07-05T09:20:24;8.00;;;1.73;;
44850;SDS011;30583;48.714;9.386;2022-07-05T09:22:52;6.38;;;1.85;;
44850;SDS011;30583;48.714;9.386;2022-07-05T09:25:27;11.50;;;3.25;;
44850;SDS011;30583;48.714;9.386;2022-07-05T09:33:03;6.65;;;2.10;;
44850;SDS011;30583;48.714;9.386;2022-07-05T09:35:33;6.78;;;2.00;;
44850;SDS011;30583;48.714;9.386;2022-07-05T09:38:00;2.58;;;1.50;;
44850;SDS011;30583;48.714;9.386;2022-07-05T09:40:29;4.05;;;1.52;;
44850;SDS011;30583;48.714;9.386;2022-07-05T09:43:10;3.42;;;1.38;;
44850;SDS011;30583;48.714;9.386;2022-07-05T09:45:37;7.57;;;3.80;;
44850;SDS011;30583;48.714;9.386;2022-07-05T09:48:03;10.15;;;5.00;;
44850;SDS011;30583;48.714;9.386;2022-07-05T09:50:37;4.93;;;2.33;;
44850;SDS011;30583;48.714;9.386;2022-07-05T09:53:03;8.93;;;5.60;;
44850;SDS011;30583;48.714;9.386;2022-07-05T09:55:29;3.50;;;1.50;;
44850;SDS011;30583;48.714;9.386;2022-07-05T09:57:55;3.92;;;1.20;;
44850;SDS011;30583;48.714;9.386;2022-07-05T10:00:21;2.35;;;1.27;;
44850;SDS011;30583;48.714;9.386;2022-07-05T10:02:53;2.78;;;1.30;;
44850;SDS011;30583;48.714;9.386;2022-07-05T10:05:26;4.47;;;1.95;;
44850;SDS011;30583;48.714;9.386;2022-07-05T10:07:54;5.03;;;1.10;;
44850;SDS011;30583;48.714;9.386;2022-07-05T10:10:25;2.38;;;1.00;;
44850;SDS011;30583;48.714;9.386;2022-07-05T10:12:58;1.83;;;1.10;;
44850;SDS011;30583;48.714;9.386;2022-07-05T10:15:26;3.40;;;0.98;;
44850;SDS011;30583;48.714;9.386;2022-07-05T10:17:54;3.50;;;1.70;;
44850;SDS011;30583;48.714;9.386;2022-07-05T10:20:25;4.50;;;2.25;;
44850;SDS011;30583;48.714;9.386;2022-07-05T10:22:57;7.75;;;2.28;;
44850;SDS011;30583;48.714;9.386;2022-07-05T10:25:23;4.72;;;2.15;;
44850;SDS011;30583;48.714;9.386;2022-07-05T10:27:51;3.00;;;1.05;;
44850;SDS011;30583;48.714;9.386;2022-07-05T10:30:19;4.90;;;1.30;;
44850;SDS011;30583;48.714;9.386;2022-07-05T10:32:46;2.20;;;0.80;;
44850;SDS011;30583;48.714;9.386;2022-07-05T10:35:12;2.92;;;1.38;;
44850;SDS011;30583;48.714;9.386;2022-07-05T10:37:38;1.02;;;0.80;;
44850;SDS011;30583;48.714;9.386;2022-07-05T10:40:04;3.10;;;1.10;;
44850;SDS011;30583;48.714;9.386;2022-07-05T10:42:32;2.80;;;1.10;;
44850;SDS011;30583;48.714;9.386;2022-07-05T10:48:25;4.75;;;0.98;;
44850;SDS011;30583;48.714;9.386;2022-07-05T10:53:15;3.13;;;0.93;;
44850;SDS011;30583;48.714;9.386;2022-07-05T10:55:49;2.97;;;1.10;;
44850;SDS011;30583;48.714;9.386;2022-07-05T10:58:18;4.30;;;2.42;;
44850;SDS011;30583;48.714;9.386;2022-07-05T11:00:48;19.00;;;12.60;;
44850;SDS011;30583;48.714;9.386;2022-07-05T11:06:07;2.92;;;1.10;;
44850;SDS011;30583;48.714;9.386;2022-07-05T11:11:28;3.47;;;1.10;;
44850;SDS011;30583;48.714;9.386;2022-07-05T11:13:55;6.55;;;3.30;;
44850;SDS011;30583;48.714;9.386;2022-07-05T11:16:27;4.30;;;1.58;;
44850;SDS011;30583;48.714;9.386;2022-07-05T11:19:05;4.40;;;2.75;;
44850;SDS011;30583;48.714;9.386;2022-07-05T11:21:36;6.80;;;1.17;;
44850;SDS011;30583;48.714;9.386;2022-07-05T11:24:22;3.78;;;1.17;;
44850;SDS011;30583;48.714;9.386;2022-07-05T11:26:50;3.35;;;1.00;;
44850;SDS011;30583;48.714;9.386;2022-07-05T11:34:41;5.15;;;1.00;;
44850;SDS011;30583;48.714;9.386;2022-07-05T11:39:42;6.22;;;1.02;;
44850;SDS011;30583;48.714;9.386;2022-07-05T11:42:09;2.55;;;0.70;;
44850;SDS011;30583;48.714;9.386;2022-07-05T11:44:36;4.45;;;1.35;;
44850;SDS011;30583;48.714;9.386;2022-07-05T11:47:05;3.50;;;0.90;;
44850;SDS011;30583;48.714;9.386;2022-07-05T11:49:31;3.55;;;1.13;;
44850;SDS011;30583;48.714;9.386;2022-07-05T11:52:01;4.78;;;0.98;;
44850;SDS011;30583;48.714;9.386;2022-07-05T11:54:31;2.22;;;0.88;;
44850;SDS011;30583;48.714;9.386;2022-07-05T11:57:01;1.38;;;0.73;;
44850;SDS011;30583;48.714;9.386;2022-07-05T11:59:27;3.17;;;0.70;;
44850;SDS011;30583;48.714;9.386;2022-07-05T12:01:53;3.35;;;0.80;;
44850;SDS011;30583;48.714;9.386;2022-07-05T12:04:29;1.50;;;0.80;;
44850;SDS011;30583;48.714;9.386;2022-07-05T12:06:55;1.83;;;0.63;;
44850;SDS011;30583;48.714;9.386;2022-07-05T12:09:26;2.58;;;0.90;;
44850;SDS011;30583;48.714;9.386;2022-07-05T12:12:21;6.07;;;1.15;;
44850;SDS011;30583;48.714;9.386;2022-07-05T12:15:10;2.50;;;0.90;;
44850;SDS011;30583;48.714;9.386;2022-07-05T12:17:37;3.50;;;1.10;;
44850;SDS011;30583;48.714;9.386;2022-07-05T12:20:05;1.10;;;0.68;;
44850;SDS011;30583;48.714;9.386;2022-07-05T12:22:32;3.35;;;0.80;;
44850;SDS011;30583;48.714;9.386;2022-07-05T12:24:58;2.90;;;0.98;;
44850;SDS011;30583;48.714;9.386;2022-07-05T12:27:26;3.75;;;0.90;;
44850;SDS011;30583;48.714;9.386;2022-07-05T12:29:52;4.20;;;1.00;;
44850;SDS011;30583;48.714;9.386;2022-07-05T12:32:18;3.20;;;0.80;;
44850;SDS011;30583;48.714;9.386;2022-07-05T12:34:44;2.55;;;0.80;;
44850;SDS011;30583;48.714;9.386;2022-07-05T12:37:10;1.55;;;0.80;;
44850;SDS011;30583;48.714;9.386;2022-07-05T12:39:44;4.00;;;1.23;;
44850;SDS011;30583;48.714;9.386;2022-07-05T12:42:09;3.40;;;0.95;;
44850;SDS011;30583;48.714;9.386;2022-07-05T12:44:35;2.65;;;0.88;;
44850;SDS011;30583;48.714;9.386;2022-07-05T12:47:04;2.50;;;0.90;;
44850;SDS011;30583;48.714;9.386;2022-07-05T12:49:30;3.13;;;0.73;;
44850;SDS011;30583;48.714;9.386;2022-07-05T12:52:02;3.80;;;0.73;;
44850;SDS011;30583;48.714;9.386;2022-07-05T12:57:15;3.13;;;0.77;;
44850;SDS011;30583;48.714;9.386;2022-07-05T13:00:00;3.53;;;0.80;;
44850;SDS011;30583;48.714;9.386;2022-07-05T13:02:40;2.58;;;0.93;;
44850;SDS011;30583;48.714;9.386;2022-07-05T13:05:08;5.32;;;0.80;;
44850;SDS011;30583;48.714;9.386;2022-07-05T13:07:41;2.95;;;0.80;;
44850;SDS011;30583;48.714;9.386;2022-07-05T13:12:47;4.82;;;1.25;;
44850;SDS011;30583;48.714;9.386;2022-07-05T13:15:13;3.40;;;0.98;;
44850;SDS011;30583;48.714;9.386;2022-07-05T13:17:39;2.05;;;0.90;;
44850;SDS011;30583;48.714;9.386;2022-07-05T13:20:06;7.28;;;0.85;;
44850;SDS011;30583;48.714;9.386;2022-07-05T13:22:32;2.97;;;0.93;;
44850;SDS011;30583;48.714;9.386;2022-07-05T13:24:58;1.75;;;1.00;;
44850;SDS011;30583;48.714;9.386;2022-07-05T13:27:23;1.90;;;0.95;;
44850;SDS011;30583;48.714;9.386;2022-07-05T13:29:49;6.85;;;1.60;;
44850;SDS011;30583;48.714;9.386;2022-07-05T13:32:14;2.00;;;0.80;;
44850;SDS011;30583;48.714;9.386;2022-07-05T13:34:41;2.17;;;0.80;;
44850;SDS011;30583;48.714;9.386;2022-07-05T13:37:10;6.45;;;1.13;;
44850;SDS011;30583;48.714;9.386;2022-07-05T13:39:36;3.97;;;1.05;;
44850;SDS011;30583;48.714;9.386;2022-07-05T13:42:03;2.70;;;1.00;;
44850;SDS011;30583;48.714;9.386;2022-07-05T13:44:30;6.03;;;1.45;;
44850;SDS011;30583;48.714;9.386;2022-07-05T13:46:56;3.47;;;1.30;;
44850;SDS011;30583;48.714;9.386;2022-07-05T13:49:22;3.42;;;1.10;;
44850;SDS011;30583;48.714;9.386;2022-07-05T13:51:47;3.90;;;0.90;;
44850;SDS011;30583;48.714;9.386;2022-07-05T13:54:13;5.35;;;1.23;;
44850;SDS011;30583;48.714;9.386;2022-07-05T13:56:39;3.72;;;0.93;;
44850;SDS011;30583;48.714;9.386;2022-07-05T13:59:05;4.22;;;0.90;;
44850;SDS011;30583;48.714;9.386;2022-07-05T14:01:31;3.80;;;1.05;;
44850;SDS011;30583;48.714;9.386;2022-07-05T14:03:57;5.35;;;1.15;;
44850;SDS011;30583;48.714;9.386;2022-07-05T14:06:24;2.70;;;0.80;;
44850;SDS011;30583;48.714;9.386;2022-07-05T14:08:50;4.80;;;1.05;;
44850;SDS011;30583;48.714;9.386;2022-07-05T14:11:16;3.08;;;0.93;;
44850;SDS011;30583;48.714;9.386;2022-07-05T14:13:41;4.50;;;0.80;;
44850;SDS011;30583;48.714;9.386;2022-07-05T14:16:07;4.60;;;1.00;;
44850;SDS011;30583;48.714;9.386;2022-07-05T14:18:33;2.65;;;0.88;;
44850;SDS011;30583;48.714;9.386;2022-07-05T14:20:59;6.32;;;0.90;;
44850;SDS011;30583;48.714;9.386;2022-07-05T14:23:24;2.63;;;0.90;;
44850;SDS011;30583;48.714;9.386;2022-07-05T14:25:50;2.05;;;0.82;;
44850;SDS011;30583;48.714;9.386;2022-07-05T14:28:16;4.50;;;1.00;;
44850;SDS011;30583;48.714;9.386;2022-07-05T14:30:42;3.10;;;1.30;;
44850;SDS011;30583;48.714;9.386;2022-07-05T14:33:09;4.30;;;1.13;;
44850;SDS011;30583;48.714;9.386;2022-07-05T14:35:36;3.13;;;1.10;;
44850;SDS011;30583;48.714;9.386;2022-07-05T14:38:03;1.90;;;0.90;;
44850;SDS011;30583;48.714;9.386;2022-07-05T14:40:29;3.92;;;1.10;;
44850;SDS011;30583;48.714;9.386;2022-07-05T14:42:56;2.40;;;0.90;;
44850;SDS011;30583;48.714;9.386;2022-07-05T14:45:23;3.67;;;1.13;;
44850;SDS011;30583;48.714;9.386;2022-07-05T14:47:49;3.13;;;1.65;;
44850;SDS011;30583;48.714;9.386;2022-07-05T14:50:15;2.28;;;0.75;;
44850;SDS011;30583;48.714;9.386;2022-07-05T14:52:41;2.58;;;1.17;;
44850;SDS011;30583;48.714;9.386;2022-07-05T14:55:08;3.42;;;1.10;;
44850;SDS011;30583;48.714;9.386;2022-07-05T14:57:34;5.53;;;1.58;;
44850;SDS011;30583;48.714;9.386;2022-07-05T15:00:01;2.88;;;1.00;;
44850;SDS011;30583;48.714;9.386;2022-07-05T15:02:28;5.53;;;1.30;;
44850;SDS011;30583;48.714;9.386;2022-07-05T15:04:53;1.83;;;1.00;;
44850;SDS011;30583;48.714;9.386;2022-07-05T15:07:19;2.75;;;1.10;;
44850;SDS011;30583;48.714;9.386;2022-07-05T15:09:45;3.42;;;0.93;;
44850;SDS011;30583;48.714;9.386;2022-07-05T15:12:11;4.05;;;1.20;;
44850;SDS011;30583;48.714;9.386;2022-07-05T15:14:37;3.63;;;1.10;;
44850;SDS011;30583;48.714;9.386;2022-07-05T15:17:02;2.00;;;0.90;;